createdAt,value
2019-05-29T00:01:14.204Z,9.70
2019-05-29T00:03:41.100Z,9.70
2019-05-29T00:06:12.410Z,9.70
2019-05-29T00:08:42.966Z,9.70
2019-05-29T00:11:14.296Z,9.70
2019-05-29T00:13:44.855Z,9.70
2019-05-29T00:16:15.283Z,9.60
2019-05-29T00:18:45.697Z,9.60
2019-05-29T00:21:16.136Z,9.60
2019-05-29T00:23:46.571Z,9.60
2019-05-29T00:26:16.985Z,9.60
2019-05-29T00:28:47.461Z,9.60
2019-05-29T00:31:18.199Z,9.60
2019-05-29T00:33:48.725Z,9.60
2019-05-29T00:36:19.211Z,9.60
2019-05-29T00:38:49.625Z,9.50
2019-05-29T00:41:20.065Z,9.60
2019-05-29T00:43:50.483Z,9.60
2019-05-29T00:46:20.910Z,9.50
2019-05-29T00:48:51.347Z,9.60
2019-05-29T00:51:22.788Z,9.50
2019-05-29T00:53:53.228Z,9.50
2019-05-29T00:56:23.694Z,9.50
2019-05-29T00:58:54.223Z,9.60
2019-05-29T01:01:24.904Z,9.60
2019-05-29T01:03:55.487Z,9.70
2019-05-29T01:06:26.030Z,9.70
2019-05-29T01:08:56.605Z,9.80
2019-05-29T01:11:27.021Z,9.90
2019-05-29T01:13:57.465Z,9.90
2019-05-29T01:16:27.877Z,10.00
2019-05-29T01:19:18.071Z,10.00
2019-05-29T01:21:48.715Z,10.00
2019-05-29T01:24:20.666Z,10.00
2019-05-29T01:26:51.201Z,10.10
2019-05-29T01:29:21.628Z,10.20
2019-05-29T01:31:52.048Z,10.20
2019-05-29T01:34:23.883Z,10.20
2019-05-29T01:36:54.519Z,10.30
2019-05-29T01:39:25.998Z,10.30
2019-05-29T01:41:57.449Z,10.30
2019-05-29T01:44:27.904Z,10.40
2019-05-29T01:46:58.304Z,10.40
2019-05-29T01:49:28.737Z,10.40
2019-05-29T01:52:00.510Z,10.50
2019-05-29T01:54:31.019Z,10.50
2019-05-29T01:57:01.485Z,10.60
2019-05-29T01:59:32.022Z,10.60
2019-05-29T02:02:02.611Z,10.60
2019-05-29T02:04:33.191Z,10.60
2019-05-29T02:07:03.666Z,10.60
2019-05-29T02:09:34.096Z,10.60
2019-05-29T02:12:04.991Z,10.70
2019-05-29T02:14:35.446Z,10.60
2019-05-29T02:17:05.891Z,10.70
2019-05-29T02:19:36.301Z,10.70
2019-05-29T02:22:06.738Z,10.70
2019-05-29T02:24:37.154Z,10.70
2019-05-29T02:27:07.592Z,10.60
2019-05-29T02:29:38.201Z,10.60
2019-05-29T02:32:08.647Z,10.60
2019-05-29T02:34:39.067Z,10.60
2019-05-29T02:37:09.561Z,10.70
2019-05-29T02:39:40.127Z,10.70
2019-05-29T02:42:10.561Z,10.70
2019-05-29T02:44:41.158Z,10.70
2019-05-29T02:47:12.028Z,10.70
2019-05-29T02:49:42.449Z,10.80
2019-05-29T02:52:12.891Z,10.90
2019-05-29T02:54:43.314Z,10.80
2019-05-29T02:57:13.792Z,10.90
2019-05-29T02:59:44.378Z,10.90
2019-05-29T03:02:15.007Z,10.90
2019-05-29T03:04:45.428Z,10.90
2019-05-29T03:07:16.211Z,11.00
2019-05-29T03:09:47.072Z,11.00
2019-05-29T03:12:17.531Z,10.90
2019-05-29T03:14:48.129Z,10.90
2019-05-29T03:17:18.594Z,10.90
2019-05-29T03:19:49.020Z,11.00
2019-05-29T03:22:19.451Z,11.00
2019-05-29T03:24:49.897Z,11.00
2019-05-29T03:27:20.418Z,11.00
2019-05-29T03:29:50.920Z,11.00
2019-05-29T03:32:21.364Z,11.00
2019-05-29T03:34:51.790Z,11.10
2019-05-29T03:37:22.209Z,11.10
2019-05-29T03:39:52.699Z,11.10
2019-05-29T03:42:23.154Z,11.10
2019-05-29T03:44:53.582Z,11.10
2019-05-29T03:47:24.022Z,11.10
2019-05-29T03:49:54.448Z,11.10
2019-05-29T03:52:26.350Z,11.10
2019-05-29T03:54:56.940Z,11.10
2019-05-29T03:57:27.743Z,11.10
2019-05-29T03:59:59.686Z,11.10
2019-05-29T04:02:31.237Z,11.10
2019-05-29T04:05:02.252Z,11.10
2019-05-29T04:07:33.794Z,11.10
2019-05-29T04:10:06.105Z,11.10
2019-05-29T04:12:38.060Z,11.10
2019-05-29T04:15:09.025Z,11.10
2019-05-29T04:17:41.927Z,11.10
2019-05-29T04:20:12.881Z,11.20
2019-05-29T04:22:45.426Z,11.20
2019-05-29T04:25:15.831Z,11.20
2019-05-29T04:27:49.037Z,11.20
2019-05-29T04:30:19.610Z,11.20
2019-05-29T04:32:50.247Z,11.20
2019-05-29T04:35:20.658Z,11.20
2019-05-29T04:37:51.086Z,11.20
2019-05-29T04:40:22.556Z,11.20
2019-05-29T04:42:53.282Z,11.20
2019-05-29T04:45:23.703Z,11.20
2019-05-29T04:47:54.155Z,11.20
2019-05-29T04:50:24.838Z,11.20
2019-05-29T04:52:55.286Z,11.20
2019-05-29T04:55:25.709Z,11.20
2019-05-29T04:57:56.301Z,11.20
2019-05-29T05:00:29.020Z,11.20
2019-05-29T05:02:59.767Z,11.20
2019-05-29T05:05:31.179Z,11.30
2019-05-29T05:08:01.748Z,11.30
2019-05-29T05:10:38.239Z,11.30
2019-05-29T05:13:09.126Z,11.40
2019-05-29T05:15:40.119Z,11.40
2019-05-29T05:18:10.727Z,11.40
2019-05-29T05:20:41.154Z,11.40
2019-05-29T05:23:11.575Z,11.40
2019-05-29T05:25:42.016Z,11.40
2019-05-29T05:28:12.435Z,11.50
2019-05-29T05:30:42.849Z,11.60
2019-05-29T05:33:13.324Z,11.50
2019-05-29T05:35:44.128Z,11.60
2019-05-29T05:38:14.571Z,11.70
2019-05-29T05:40:45.084Z,11.80
2019-05-29T05:43:24.067Z,11.90
2019-05-29T05:45:48.046Z,12.00
2019-05-29T05:48:18.690Z,12.00
2019-05-29T05:53:18.963Z,12.10
2019-05-29T05:55:49.535Z,12.30
2019-05-29T05:58:20.060Z,12.40
2019-05-29T06:00:50.761Z,12.40
2019-05-29T06:03:21.402Z,12.40
2019-05-29T06:05:52.119Z,12.40
2019-05-29T06:08:22.537Z,12.50
2019-05-29T06:10:52.960Z,12.50
2019-05-29T06:13:23.401Z,12.30
2019-05-29T06:15:54.031Z,12.30
2019-05-29T06:18:24.503Z,12.30
2019-05-29T06:20:54.987Z,12.40
2019-05-29T06:23:25.413Z,12.40
2019-05-29T06:25:55.944Z,12.40
2019-05-29T06:28:26.463Z,12.40
2019-05-29T06:30:56.900Z,12.50
2019-05-29T06:33:27.327Z,12.50
2019-05-29T06:35:57.753Z,12.60
2019-05-29T06:38:28.386Z,12.50
2019-05-29T06:40:58.813Z,12.50
2019-05-29T06:43:29.435Z,12.50
2019-05-29T06:45:59.873Z,12.60
2019-05-29T06:48:43.019Z,12.70
2019-05-29T06:51:03.069Z,12.80
2019-05-29T06:53:35.678Z,13.00
2019-05-29T06:56:06.238Z,13.00
2019-05-29T06:58:37.972Z,13.00
2019-05-29T07:01:08.791Z,13.20
2019-05-29T07:03:39.705Z,13.40
2019-05-29T07:06:10.305Z,13.50
2019-05-29T07:08:45.094Z,13.70
2019-05-29T07:11:13.057Z,13.60
2019-05-29T07:13:47.367Z,13.60
2019-05-29T07:16:15.899Z,13.70
2019-05-29T07:19:23.198Z,13.80
2019-05-29T07:21:18.546Z,13.90
2019-05-29T07:26:19.494Z,14.00
2019-05-29T07:29:07.527Z,14.50
2019-05-29T07:31:23.018Z,14.60
2019-05-29T07:33:53.435Z,14.70
2019-05-29T07:36:23.879Z,14.70
2019-05-29T07:39:02.576Z,14.70
2019-05-29T07:41:26.470Z,14.70
2019-05-29T07:43:56.885Z,14.60
2019-05-29T07:46:27.529Z,14.70
2019-05-29T07:56:26.676Z,14.90
2019-05-29T07:59:03.154Z,15.70
2019-05-29T08:01:30.578Z,15.60
2019-05-29T08:04:01.380Z,15.30
2019-05-29T08:06:31.870Z,15.50
2019-05-29T08:09:02.282Z,15.60
2019-05-29T08:11:32.718Z,15.60
2019-05-29T08:14:03.154Z,15.60
2019-05-29T08:16:33.561Z,15.60
2019-05-29T08:19:07.789Z,15.60
2019-05-29T08:21:36.065Z,15.60
2019-05-29T08:24:06.640Z,15.60
2019-05-29T08:26:37.116Z,15.40
2019-05-29T08:29:07.657Z,15.50
2019-05-29T08:31:40.757Z,15.60
2019-05-29T08:34:13.933Z,15.50
2019-05-29T08:37:00.468Z,15.40
2019-05-29T08:39:33.399Z,15.30
2019-05-29T08:42:19.335Z,15.10
2019-05-29T08:44:20.660Z,15.20
2019-05-29T08:47:05.129Z,15.20
2019-05-29T08:49:23.255Z,15.10
2019-05-29T08:52:08.231Z,15.00
2019-05-29T08:54:25.919Z,15.20
2019-05-29T08:56:56.367Z,15.40
2019-05-29T08:59:26.804Z,15.60
2019-05-29T09:01:57.277Z,15.80
2019-05-29T09:04:28.901Z,16.10
2019-05-29T09:09:28.821Z,16.60
2019-05-29T09:11:59.238Z,17.70
2019-05-29T09:14:29.687Z,18.30
2019-05-29T09:17:00.090Z,18.50
2019-05-29T09:19:30.531Z,18.50
2019-05-29T09:22:00.955Z,18.20
2019-05-29T09:24:31.386Z,18.00
2019-05-29T09:27:01.854Z,17.90
2019-05-29T09:29:32.342Z,18.30
2019-05-29T09:32:02.971Z,18.40
2019-05-29T09:34:33.402Z,18.10
2019-05-29T09:37:03.876Z,17.70
2019-05-29T09:39:34.353Z,17.70
2019-05-29T09:42:05.049Z,18.00
2019-05-29T09:44:39.308Z,18.10
2019-05-29T09:47:07.580Z,18.40
2019-05-29T09:49:37.993Z,18.40
2019-05-29T09:52:08.433Z,18.20
2019-05-29T09:54:38.861Z,18.00
2019-05-29T09:57:09.346Z,17.80
2019-05-29T09:59:39.818Z,17.20
2019-05-29T10:02:10.552Z,17.10
2019-05-29T10:04:41.411Z,17.30
2019-05-29T10:07:11.977Z,17.70
2019-05-29T10:09:42.434Z,17.50
2019-05-29T10:12:13.050Z,17.20
2019-05-29T10:14:43.549Z,17.00
2019-05-29T10:17:14.079Z,17.20
2019-05-29T10:19:44.770Z,17.40
2019-05-29T10:22:15.198Z,17.40
2019-05-29T10:24:45.615Z,17.60
2019-05-29T10:27:16.055Z,18.00
2019-05-29T10:29:48.824Z,18.50
2019-05-29T10:32:18.636Z,18.60
2019-05-29T10:34:50.510Z,18.60
2019-05-29T10:37:21.049Z,18.80
2019-05-29T10:39:52.867Z,18.70
2019-05-29T10:42:23.528Z,18.90
2019-05-29T10:44:53.955Z,18.80
2019-05-29T10:47:24.381Z,18.50
2019-05-29T10:49:54.815Z,18.50
2019-05-29T10:52:25.226Z,18.50
2019-05-29T10:54:55.678Z,18.20
2019-05-29T10:57:26.099Z,17.90
2019-05-29T10:59:56.695Z,18.00
2019-05-29T11:02:27.297Z,18.10
2019-05-29T11:04:59.505Z,18.10
2019-05-29T11:07:31.475Z,18.00
2019-05-29T11:10:02.016Z,18.00
2019-05-29T11:12:32.440Z,17.70
2019-05-29T11:15:19.921Z,17.50
2019-05-29T11:17:34.932Z,17.40
2019-05-29T11:20:06.446Z,17.60
2019-05-29T11:22:36.902Z,17.80
2019-05-29T11:25:22.119Z,18.40
2019-05-29T11:27:40.010Z,18.80
2019-05-29T11:30:10.913Z,18.80
2019-05-29T11:32:41.549Z,18.60
2019-05-29T11:35:12.391Z,18.60
2019-05-29T11:37:44.310Z,18.90
2019-05-29T11:40:15.329Z,19.00
2019-05-29T11:42:47.031Z,19.00
2019-05-29T11:45:19.005Z,19.00
2019-05-29T11:47:51.351Z,18.50
2019-05-29T11:50:22.873Z,18.20
2019-05-29T11:52:54.332Z,17.90
2019-05-29T11:55:24.945Z,17.70
2019-05-29T11:57:55.855Z,17.50
2019-05-29T12:00:26.829Z,17.60
2019-05-29T12:02:57.736Z,17.60
2019-05-29T12:05:28.509Z,17.60
2019-05-29T12:07:59.561Z,17.40
2019-05-29T12:10:30.087Z,17.30
2019-05-29T12:13:01.610Z,17.10
2019-05-29T12:15:32.162Z,17.10
2019-05-29T12:18:20.062Z,16.90
2019-05-29T12:20:34.755Z,16.90
2019-05-29T12:23:22.837Z,16.90
2019-05-29T12:25:37.342Z,17.10
2019-05-29T12:28:07.768Z,17.30
2019-05-29T12:30:38.616Z,17.20
2019-05-29T12:33:09.096Z,17.20
2019-05-29T12:35:39.779Z,17.20
2019-05-29T12:38:10.193Z,16.90
2019-05-29T12:40:40.623Z,16.70
2019-05-29T12:43:25.981Z,16.70
2019-05-29T12:45:43.110Z,17.00
2019-05-29T12:48:15.271Z,17.00
2019-05-29T12:50:45.823Z,17.00
2019-05-29T12:53:29.744Z,17.00
2019-05-29T12:55:48.323Z,16.90
2019-05-29T12:58:18.734Z,16.90
2019-05-29T13:00:49.169Z,17.20
2019-05-29T13:03:19.639Z,17.40
2019-05-29T13:05:50.254Z,17.60
2019-05-29T13:08:20.822Z,17.60
2019-05-29T13:10:51.287Z,17.50
2019-05-29T13:13:21.712Z,17.50
2019-05-29T13:15:52.183Z,17.80
2019-05-29T13:28:21.001Z,18.10
2019-05-29T13:30:51.424Z,19.30
2019-05-29T13:33:21.850Z,18.90
2019-05-29T13:35:52.279Z,18.90
2019-05-29T13:38:22.747Z,18.90
2019-05-29T13:40:53.247Z,19.00
2019-05-29T13:43:23.649Z,19.00
2019-05-29T13:45:54.087Z,18.70
2019-05-29T13:48:24.502Z,18.50
2019-05-29T13:50:54.949Z,18.40
2019-05-29T13:53:26.586Z,18.80
2019-05-29T13:55:59.711Z,18.80
2019-05-29T13:58:31.445Z,18.70
2019-05-29T14:01:02.473Z,18.40
2019-05-29T14:03:34.623Z,18.30
2019-05-29T14:06:05.935Z,18.20
2019-05-29T14:08:37.400Z,18.30
2019-05-29T14:11:09.116Z,18.20
2019-05-29T14:13:39.809Z,18.20
2019-05-29T14:16:10.260Z,18.30
2019-05-29T14:18:40.727Z,18.30
2019-05-29T14:21:13.517Z,18.40
2019-05-29T14:23:44.110Z,18.50
2019-05-29T14:26:14.640Z,18.50
2019-05-29T14:28:45.066Z,18.70
2019-05-29T14:31:15.498Z,19.00
2019-05-29T14:33:45.921Z,18.90
2019-05-29T14:36:16.341Z,19.00
2019-05-29T14:38:46.774Z,19.00
2019-05-29T14:41:17.263Z,18.80
2019-05-29T14:43:47.722Z,18.70
2019-05-29T14:46:18.272Z,18.80
2019-05-29T14:48:48.680Z,18.90
2019-05-29T14:51:19.131Z,19.00
2019-05-29T14:53:49.747Z,19.00
2019-05-29T14:56:20.193Z,18.80
2019-05-29T14:58:50.605Z,18.90
2019-05-29T15:01:21.029Z,19.00
2019-05-29T15:03:51.502Z,19.00
2019-05-29T15:06:22.334Z,19.00
2019-05-29T15:08:52.820Z,19.10
2019-05-29T15:11:23.299Z,18.80
2019-05-29T15:13:53.766Z,18.80
2019-05-29T15:16:26.001Z,18.70
2019-05-29T15:18:56.462Z,18.40
2019-05-29T15:22:09.075Z,18.30
2019-05-29T15:24:39.786Z,18.20
2019-05-29T15:27:12.025Z,18.10
2019-05-29T15:29:42.543Z,18.20
2019-05-29T15:32:12.991Z,18.50
2019-05-29T15:34:43.476Z,18.90
2019-05-29T15:37:16.854Z,19.10
2019-05-29T15:39:45.973Z,19.10
2019-05-29T15:42:17.005Z,19.00
2019-05-29T15:44:47.719Z,19.20
2019-05-29T15:47:18.180Z,19.10
2019-05-29T15:49:48.603Z,18.80
2019-05-29T15:52:19.189Z,18.40
2019-05-29T15:54:49.657Z,18.00
2019-05-29T15:57:20.856Z,17.90
2019-05-29T15:59:51.602Z,17.80
2019-05-29T16:02:23.693Z,17.90
2019-05-29T16:04:54.422Z,18.00
2019-05-29T16:07:24.959Z,17.70
2019-05-29T16:09:55.701Z,17.50
2019-05-29T16:12:30.439Z,17.20
2019-05-29T16:14:58.491Z,17.00
2019-05-29T16:17:29.122Z,16.80
2019-05-29T16:19:59.562Z,16.70
2019-05-29T16:22:30.003Z,16.60
2019-05-29T16:25:00.414Z,16.50
2019-05-29T16:27:31.169Z,16.40
2019-05-29T16:30:01.684Z,16.40
2019-05-29T16:32:32.104Z,16.40
2019-05-29T16:35:02.535Z,16.30
2019-05-29T16:37:32.958Z,16.20
2019-05-29T16:40:04.818Z,16.30
2019-05-29T16:42:35.251Z,16.40
2019-05-29T16:45:07.007Z,16.50
2019-05-29T16:47:37.533Z,16.60
2019-05-29T16:50:08.881Z,16.70
2019-05-29T16:52:39.311Z,16.60
2019-05-29T16:55:10.497Z,16.60
2019-05-29T16:57:42.614Z,16.50
2019-05-29T17:00:13.815Z,16.40
2019-05-29T17:02:44.602Z,16.40
2019-05-29T17:05:15.809Z,16.50
2019-05-29T17:07:46.471Z,16.60
2019-05-29T17:10:18.287Z,16.70
2019-05-29T17:12:48.870Z,16.70
2019-05-29T17:15:20.489Z,16.60
2019-05-29T17:17:50.955Z,16.60
2019-05-29T17:20:29.354Z,16.70
2019-05-29T17:22:59.784Z,16.70
2019-05-29T17:25:31.660Z,16.90
2019-05-29T17:28:02.087Z,17.00
2019-05-29T17:30:32.795Z,17.20
2019-05-29T17:33:03.349Z,17.30
2019-05-29T17:35:33.765Z,17.10
2019-05-29T17:38:04.215Z,17.10
2019-05-29T17:40:34.783Z,16.90
2019-05-29T17:43:05.427Z,16.90
2019-05-29T17:45:35.930Z,16.80
2019-05-29T17:48:06.873Z,16.80
2019-05-29T17:50:37.364Z,16.80
2019-05-29T17:53:07.775Z,16.80
2019-05-29T17:55:38.202Z,16.80
2019-05-29T17:58:08.730Z,16.80
2019-05-29T18:00:39.273Z,16.60
2019-05-29T18:03:09.798Z,16.60
2019-05-29T18:05:40.269Z,16.60
2019-05-29T18:08:11.063Z,16.60
2019-05-29T18:10:41.492Z,16.60
2019-05-29T18:13:11.906Z,16.60
2019-05-29T18:15:43.514Z,16.50
2019-05-29T18:18:14.152Z,16.50
2019-05-29T18:20:44.632Z,16.50
2019-05-29T18:23:15.060Z,16.40
2019-05-29T18:25:45.484Z,16.50
2019-05-29T18:28:15.902Z,16.50
2019-05-29T18:30:46.346Z,16.60
2019-05-29T18:33:16.771Z,16.60
2019-05-29T18:35:47.182Z,16.70
2019-05-29T18:38:17.635Z,16.70
2019-05-29T18:40:48.047Z,16.80
2019-05-29T18:43:18.464Z,16.90
2019-05-29T18:45:49.067Z,16.90
2019-05-29T18:48:19.533Z,16.90
2019-05-29T18:50:50.107Z,16.90
2019-05-29T18:53:20.770Z,16.80
2019-05-29T18:55:51.224Z,16.70
2019-05-29T18:58:22.201Z,16.70
2019-05-29T19:00:53.006Z,16.60
2019-05-29T19:03:23.556Z,16.60
2019-05-29T19:05:54.111Z,16.50
2019-05-29T19:08:25.769Z,16.50
2019-05-29T19:10:56.248Z,16.50
2019-05-29T19:13:27.943Z,16.40
2019-05-29T19:15:58.529Z,16.40
2019-05-29T19:18:30.137Z,16.30
2019-05-29T19:21:00.772Z,16.30
2019-05-29T19:23:31.247Z,16.20
2019-05-29T19:26:01.730Z,16.20
2019-05-29T19:28:32.836Z,16.10
2019-05-29T19:31:03.465Z,16.10
2019-05-29T19:33:33.874Z,16.10
2019-05-29T19:36:04.394Z,16.10
2019-05-29T19:38:34.848Z,16.00
2019-05-29T20:43:39.774Z,16.00
2019-05-29T20:46:10.318Z,15.80
2019-05-29T20:48:40.746Z,15.80
2019-05-29T20:51:11.180Z,15.70
2019-05-29T20:53:41.847Z,15.70
2019-05-29T20:56:12.379Z,15.70
2019-05-29T20:58:42.861Z,15.70
2019-05-29T21:01:13.360Z,15.60
2019-05-29T21:03:43.806Z,15.60
2019-05-29T21:06:14.402Z,15.50
2019-05-29T21:08:46.003Z,15.40
2019-05-29T21:11:17.565Z,15.40
2019-05-29T21:13:47.984Z,15.40
2019-05-29T21:16:18.399Z,15.40
2019-05-29T21:18:48.838Z,15.40
2019-05-29T21:21:20.291Z,15.40
2019-05-29T21:23:50.709Z,15.30
2019-05-29T21:26:21.208Z,15.30
2019-05-29T21:28:51.761Z,15.30
2019-05-29T21:31:22.202Z,15.30
2019-05-29T21:33:52.629Z,15.20
2019-05-29T21:36:23.061Z,15.20
2019-05-29T21:38:53.483Z,15.20
2019-05-29T21:41:23.909Z,15.30
2019-05-29T21:43:54.336Z,15.30
2019-05-29T21:46:24.753Z,15.30
2019-05-29T21:48:55.190Z,15.30
2019-05-29T21:51:25.620Z,15.30
2019-05-29T21:53:56.045Z,15.20
2019-05-29T21:56:26.630Z,15.30
2019-05-29T21:59:03.508Z,15.30
2019-05-29T22:01:31.691Z,15.20
2019-05-29T22:04:02.306Z,15.20
2019-05-29T22:06:32.838Z,15.20
2019-05-29T22:09:03.512Z,15.10
2019-05-29T22:11:33.955Z,15.00
2019-05-29T22:14:04.479Z,15.00
2019-05-29T22:16:34.913Z,15.00
2019-05-29T22:19:05.322Z,15.00
2019-05-29T22:21:35.766Z,15.10
2019-05-29T22:24:06.482Z,15.00
2019-05-29T22:26:36.925Z,15.10
2019-05-29T22:29:17.766Z,15.00
2019-05-29T22:31:39.711Z,15.00
2019-05-29T22:34:10.138Z,15.00
2019-05-29T22:36:40.576Z,15.00
2019-05-29T22:39:11.003Z,15.00
2019-05-29T22:41:41.419Z,14.90
2019-05-29T22:44:11.855Z,14.90
2019-05-29T22:46:42.446Z,15.00
2019-05-29T22:49:12.979Z,15.00
2019-05-29T22:51:43.445Z,15.00
2019-05-29T22:54:13.876Z,14.90
2019-05-29T22:56:44.286Z,14.90
2019-05-29T22:59:30.908Z,15.00
2019-05-29T23:01:46.840Z,14.90
2019-05-29T23:04:17.306Z,15.00
2019-05-29T23:06:47.797Z,15.00
2019-05-29T23:09:18.401Z,14.90
2019-05-29T23:11:48.907Z,14.90
2019-05-29T23:14:19.336Z,14.90
2019-05-29T23:16:49.868Z,14.90
2019-05-29T23:19:20.691Z,14.80
2019-05-29T23:21:52.346Z,14.80
2019-05-29T23:24:22.888Z,14.80
2019-05-29T23:26:53.805Z,14.80
2019-05-29T23:29:25.378Z,14.80
2019-05-29T23:31:56.840Z,14.70
2019-05-29T23:34:27.364Z,14.70
2019-05-29T23:36:57.793Z,14.70
2019-05-29T23:39:28.203Z,14.70
2019-05-29T23:41:59.377Z,14.60
2019-05-29T23:44:29.884Z,14.60
2019-05-29T23:47:01.627Z,14.70
2019-05-29T23:49:32.276Z,14.70
2019-05-29T23:52:03.619Z,14.60
2019-05-29T23:54:36.294Z,14.70
2019-05-29T23:57:06.765Z,14.60
2019-05-29T23:59:37.569Z,14.60
